createdAt,value
2019-02-03T00:02:25.870Z,5.27
2019-02-03T00:04:57.807Z,5.25
2019-02-03T00:07:28.044Z,5.24
2019-02-03T00:10:31.419Z,5.27
2019-02-03T00:13:06.004Z,5.26
2019-02-03T00:15:58.710Z,5.26
2019-02-03T00:18:37.154Z,5.26
2019-02-03T00:21:13.676Z,5.24
2019-02-03T00:23:55.232Z,5.27
2019-02-03T00:26:49.584Z,5.27
2019-02-03T00:29:20.192Z,5.30
2019-02-03T00:31:59.333Z,5.28
2019-02-03T00:34:31.086Z,5.27
2019-02-03T00:37:15.313Z,5.28
2019-02-03T00:39:43.650Z,5.27
2019-02-03T00:42:20.197Z,5.23
2019-02-03T00:44:55.198Z,5.25
2019-02-03T00:47:25.873Z,5.20
2019-02-03T00:49:56.711Z,5.18
2019-02-03T00:52:27.636Z,5.11
2019-02-03T00:54:58.477Z,5.08
2019-02-03T00:57:28.982Z,5.06
2019-02-03T00:59:59.657Z,4.98
2019-02-03T01:02:31.503Z,4.91
2019-02-03T01:05:01.833Z,4.81
2019-02-03T01:07:32.687Z,4.79
2019-02-03T01:10:10.215Z,4.77
2019-02-03T01:12:42.635Z,4.70
2019-02-03T01:15:13.282Z,4.63
2019-02-03T01:17:44.880Z,4.62
2019-02-03T01:20:16.868Z,4.64
2019-02-03T01:22:47.854Z,4.65
2019-02-03T01:25:19.054Z,4.67
2019-02-03T01:27:49.589Z,4.70
2019-02-03T01:30:21.863Z,4.68
2019-02-03T01:32:52.805Z,4.67
2019-02-03T01:35:23.505Z,4.71
2019-02-03T01:37:53.837Z,4.76
2019-02-03T01:40:24.662Z,4.78
2019-02-03T01:42:57.838Z,4.76
2019-02-03T01:45:32.652Z,4.73
2019-02-03T01:48:03.435Z,4.72
2019-02-03T01:50:35.325Z,4.69
2019-02-03T01:53:06.123Z,4.66
2019-02-03T01:55:37.059Z,4.66
2019-02-03T01:58:08.810Z,4.64
2019-02-03T02:00:41.188Z,4.68
2019-02-03T02:03:14.420Z,4.65
2019-02-03T02:05:44.767Z,4.65
2019-02-03T02:08:15.274Z,4.67
2019-02-03T02:10:45.979Z,4.67
2019-02-03T02:13:18.107Z,4.69
2019-02-03T02:15:48.661Z,4.68
2019-02-03T02:18:18.745Z,4.67
2019-02-03T02:20:49.186Z,4.62
2019-02-03T02:23:19.786Z,4.70
2019-02-03T02:25:51.933Z,4.71
2019-02-03T02:28:22.263Z,4.72
2019-02-03T02:30:52.503Z,4.70
2019-02-03T02:33:22.682Z,4.62
2019-02-03T02:35:54.032Z,4.63
2019-02-03T02:38:26.451Z,4.60
2019-02-03T02:40:57.414Z,4.62
2019-02-03T02:43:27.761Z,4.65
2019-02-03T02:45:58.443Z,4.63
2019-02-03T02:48:28.593Z,4.67
2019-02-03T02:50:59.138Z,4.71
2019-02-03T02:53:29.268Z,4.75
2019-02-03T02:55:59.480Z,4.76
2019-02-03T02:58:29.686Z,4.75
2019-02-03T03:00:59.557Z,4.78
2019-02-03T03:03:29.540Z,4.78
2019-02-03T03:05:59.502Z,4.81
2019-02-03T03:08:29.723Z,4.80
2019-02-03T03:10:59.548Z,4.71
2019-02-03T03:13:29.619Z,4.69
2019-02-03T03:15:59.465Z,4.68
2019-02-03T03:18:29.495Z,4.66
2019-02-03T03:20:59.851Z,4.62
2019-02-03T03:23:30.187Z,4.60
2019-02-03T03:26:00.910Z,4.47
2019-02-03T03:28:31.036Z,4.36
2019-02-03T03:31:01.213Z,4.32
2019-02-03T03:33:31.409Z,4.27
2019-02-03T03:36:01.532Z,4.21
2019-02-03T03:38:32.549Z,4.20
2019-02-03T03:41:03.356Z,4.11
2019-02-03T03:43:33.646Z,4.14
2019-02-03T03:46:06.443Z,4.11
2019-02-03T03:48:35.859Z,4.10
2019-02-03T03:51:06.701Z,4.06
2019-02-03T03:53:37.733Z,3.99
2019-02-03T03:56:08.288Z,3.96
2019-02-03T03:58:38.427Z,4.00
2019-02-03T04:01:08.556Z,4.11
2019-02-03T04:03:38.563Z,4.10
2019-02-03T04:06:09.167Z,4.12
2019-02-03T04:08:45.424Z,4.07
2019-02-03T04:11:11.790Z,4.02
2019-02-03T04:13:41.954Z,4.07
2019-02-03T04:16:13.889Z,4.11
2019-02-03T04:18:48.932Z,4.11
2019-02-03T04:21:21.060Z,4.09
2019-02-03T04:23:53.106Z,4.06
2019-02-03T04:26:27.165Z,4.12
2019-02-03T04:28:57.915Z,4.08
2019-02-03T04:31:28.744Z,4.08
2019-02-03T04:34:00.310Z,4.02
2019-02-03T04:36:31.151Z,4.04
2019-02-03T04:39:02.229Z,4.06
2019-02-03T04:41:32.831Z,4.06
2019-02-03T04:44:03.713Z,4.11
2019-02-03T04:46:34.944Z,4.10
2019-02-03T04:49:05.905Z,4.14
2019-02-03T04:51:37.594Z,4.15
2019-02-03T04:54:11.264Z,4.19
2019-02-03T04:56:42.148Z,4.21
2019-02-03T04:59:16.398Z,4.25
2019-02-03T05:01:47.013Z,4.26
2019-02-03T05:04:17.364Z,4.26
2019-02-03T05:06:48.284Z,4.29
2019-02-03T05:09:18.444Z,4.27
2019-02-03T05:11:48.594Z,4.25
2019-02-03T05:14:19.042Z,4.27
2019-02-03T05:16:49.104Z,4.29
2019-02-03T05:19:19.507Z,4.28
2019-02-03T05:21:50.321Z,3.87
2019-02-03T05:24:20.610Z,4.32
2019-02-03T05:26:50.761Z,4.36
2019-02-03T05:29:21.252Z,4.35
2019-02-03T05:31:51.401Z,4.33
2019-02-03T05:34:21.631Z,4.27
2019-02-03T05:36:52.309Z,4.25
2019-02-03T05:39:25.322Z,4.26
2019-02-03T05:41:54.428Z,4.30
2019-02-03T05:44:25.066Z,4.31
2019-02-03T05:46:56.715Z,4.32
2019-02-03T05:49:27.140Z,4.31
2019-02-03T05:51:59.926Z,4.25
2019-02-03T05:54:29.986Z,4.26
2019-02-03T05:57:01.182Z,4.23
2019-02-03T05:59:31.125Z,4.27
2019-02-03T06:02:01.740Z,4.19
2019-02-03T06:04:32.530Z,4.00
2019-02-03T06:07:02.885Z,4.16
2019-02-03T06:09:36.692Z,4.23
2019-02-03T06:12:05.807Z,4.25
2019-02-03T06:14:36.099Z,4.26
2019-02-03T06:17:06.910Z,4.22
2019-02-03T06:19:37.091Z,4.13
2019-02-03T06:22:07.686Z,4.10
2019-02-03T06:24:38.939Z,4.08
2019-02-03T06:27:09.320Z,4.13
2019-02-03T06:29:39.580Z,4.20
2019-02-03T06:32:09.885Z,4.18
2019-02-03T06:34:40.990Z,4.18
2019-02-03T06:37:11.738Z,3.65
2019-02-03T06:39:48.605Z,4.14
2019-02-03T06:42:14.932Z,4.14
2019-02-03T06:44:49.206Z,3.96
2019-02-03T06:47:25.774Z,3.93
2019-02-03T06:49:56.348Z,3.91
2019-02-03T06:52:26.686Z,3.85
2019-02-03T06:54:58.679Z,3.75
2019-02-03T06:57:29.304Z,3.74
2019-02-03T06:59:59.828Z,3.75
2019-02-03T07:02:30.305Z,3.69
2019-02-03T07:05:00.419Z,3.72
2019-02-03T07:07:30.496Z,3.77
2019-02-03T07:10:01.134Z,3.74
2019-02-03T07:12:32.235Z,3.68
2019-02-03T07:15:02.596Z,3.76
2019-02-03T07:17:34.069Z,3.75
2019-02-03T07:20:08.013Z,3.72
2019-02-03T07:22:38.537Z,3.70
2019-02-03T07:25:09.410Z,3.77
2019-02-03T07:27:39.704Z,3.79
2019-02-03T07:30:14.175Z,3.73
2019-02-03T07:32:44.792Z,3.23
2019-02-03T07:35:15.711Z,3.72
2019-02-03T07:37:46.310Z,3.66
2019-02-03T07:40:16.516Z,3.08
2019-02-03T07:42:47.209Z,3.72
2019-02-03T07:45:17.580Z,3.68
2019-02-03T07:47:48.434Z,3.67
2019-02-03T07:50:19.616Z,3.75
2019-02-03T07:52:52.466Z,3.77
2019-02-03T07:55:22.774Z,3.76
2019-02-03T07:57:53.523Z,3.77
2019-02-03T08:00:26.034Z,3.75
2019-02-03T08:02:57.083Z,3.83
2019-02-03T08:05:27.128Z,3.78
2019-02-03T08:07:57.579Z,3.76
2019-02-03T08:10:29.770Z,3.77
2019-02-03T08:12:59.904Z,3.82
2019-02-03T08:15:30.495Z,3.87
2019-02-03T08:18:01.071Z,3.97
2019-02-03T08:20:32.659Z,4.06
2019-02-03T08:23:06.829Z,4.09
2019-02-03T08:25:37.007Z,4.18
2019-02-03T08:28:07.352Z,4.19
2019-02-03T08:30:39.454Z,4.21
2019-02-03T08:33:10.380Z,4.25
2019-02-03T08:35:41.999Z,4.25
2019-02-03T08:38:13.005Z,4.27
2019-02-03T08:40:48.914Z,4.28
2019-02-03T08:43:20.806Z,4.38
2019-02-03T08:45:52.299Z,4.40
2019-02-03T08:48:23.469Z,4.42
2019-02-03T08:50:56.360Z,4.49
2019-02-03T08:53:27.666Z,4.57
2019-02-03T08:56:08.006Z,4.50
2019-02-03T08:58:40.739Z,4.41
2019-02-03T09:01:35.200Z,4.33
2019-02-03T09:04:10.339Z,4.23
2019-02-03T09:06:49.629Z,4.20
2019-02-03T09:09:22.757Z,4.11
2019-02-03T09:12:15.778Z,4.18
2019-02-03T09:14:52.898Z,4.27
2019-02-03T09:18:31.618Z,4.28
2019-02-03T09:20:48.440Z,4.34
2019-02-03T09:23:21.375Z,4.34
2019-02-03T09:25:58.552Z,4.38
2019-02-03T09:28:29.825Z,4.46
2019-02-03T09:31:04.053Z,4.38
2019-02-03T09:33:35.301Z,4.35
2019-02-03T09:36:10.493Z,4.28
2019-02-03T09:38:46.029Z,3.73
2019-02-03T09:41:17.011Z,4.10
2019-02-03T09:43:48.512Z,4.21
2019-02-03T09:46:22.741Z,4.26
2019-02-03T09:48:54.475Z,4.32
2019-02-03T09:51:29.890Z,4.24
2019-02-03T09:54:01.084Z,4.34
2019-02-03T09:56:33.909Z,4.26
2019-02-03T09:59:05.073Z,4.28
2019-02-03T10:01:41.133Z,4.29
2019-02-03T10:04:14.731Z,4.33
2019-02-03T10:06:46.496Z,4.37
2019-02-03T10:09:18.213Z,4.34
2019-02-03T10:11:49.429Z,4.33
2019-02-03T10:14:20.230Z,4.37
2019-02-03T10:16:52.181Z,4.46
2019-02-03T10:19:22.972Z,3.97
2019-02-03T10:21:57.066Z,4.10
2019-02-03T10:24:41.688Z,4.43
2019-02-03T10:27:09.472Z,4.54
2019-02-03T10:29:46.751Z,3.60
2019-02-03T10:32:19.846Z,4.69
2019-02-03T10:34:52.596Z,4.81
2019-02-03T10:37:23.935Z,4.90
2019-02-03T10:40:12.789Z,4.77
2019-02-03T10:42:47.693Z,4.71
2019-02-03T10:45:47.116Z,4.76
2019-02-03T10:48:24.658Z,4.83
2019-02-03T10:51:16.077Z,4.85
2019-02-03T10:53:57.553Z,4.96
2019-02-03T10:56:32.145Z,4.96
2019-02-03T10:59:07.857Z,5.07
2019-02-03T11:01:45.076Z,5.20
2019-02-03T11:04:23.755Z,5.08
2019-02-03T11:06:57.231Z,5.17
2019-02-03T11:09:30.410Z,5.06
2019-02-03T11:12:02.158Z,5.18
2019-02-03T11:14:43.416Z,5.08
2019-02-03T11:17:17.497Z,4.97
2019-02-03T11:19:52.788Z,4.94
2019-02-03T11:22:51.127Z,4.97
2019-02-03T11:25:27.851Z,4.95
2019-02-03T11:28:01.687Z,4.82
2019-02-03T11:30:32.889Z,4.78
2019-02-03T11:33:08.750Z,4.71
2019-02-03T11:35:41.840Z,4.57
2019-02-03T11:38:16.929Z,4.55
2019-02-03T11:40:50.631Z,4.38
2019-02-03T11:43:23.954Z,4.35
2019-02-03T11:45:55.780Z,4.46
2019-02-03T11:48:29.249Z,4.46
2019-02-03T11:51:05.258Z,4.44
2019-02-03T11:53:49.736Z,4.38
2019-02-03T11:56:22.393Z,4.35
2019-02-03T11:59:01.743Z,4.32
2019-02-03T12:01:38.588Z,4.33
2019-02-03T12:04:20.852Z,4.31
2019-02-03T12:06:53.432Z,4.30
2019-02-03T12:09:29.943Z,4.33
2019-02-03T12:12:09.159Z,4.17
2019-02-03T12:14:42.914Z,4.18
2019-02-03T12:17:33.799Z,4.17
2019-02-03T12:20:15.763Z,4.19
2019-02-03T12:22:53.311Z,4.21
2019-02-03T12:25:43.245Z,4.15
2019-02-03T12:28:18.093Z,4.23
2019-02-03T12:30:51.750Z,3.63
2019-02-03T12:33:23.466Z,4.13
2019-02-03T12:36:06.539Z,4.12
2019-02-03T12:38:40.946Z,4.14
2019-02-03T12:41:15.371Z,4.06
2019-02-03T12:44:04.784Z,4.04
2019-02-03T12:46:38.844Z,3.99
2019-02-03T12:49:15.819Z,3.98
2019-02-03T12:51:47.030Z,4.07
2019-02-03T12:54:20.620Z,4.10
2019-02-03T12:56:51.484Z,4.13
2019-02-03T12:59:26.080Z,3.99
2019-02-03T13:01:56.561Z,4.10
2019-02-03T13:04:28.857Z,4.23
2019-02-03T13:07:01.132Z,4.23
2019-02-03T13:09:39.124Z,4.30
2019-02-03T13:12:24.704Z,4.35
2019-02-03T13:14:47.651Z,4.38
2019-02-03T13:17:20.421Z,4.42
2019-02-03T13:19:52.461Z,4.41
2019-02-03T13:22:24.058Z,4.47
2019-02-03T13:24:55.123Z,4.51
2019-02-03T13:27:26.588Z,4.53
2019-02-03T13:30:01.183Z,4.47
2019-02-03T13:32:37.487Z,4.43
2019-02-03T13:35:12.388Z,4.34
2019-02-03T13:37:47.973Z,4.26
2019-02-03T13:40:20.740Z,4.30
2019-02-03T13:42:55.180Z,4.33
2019-02-03T13:45:27.543Z,4.46
2019-02-03T13:48:00.944Z,4.42
2019-02-03T13:50:31.781Z,4.46
2019-02-03T13:53:05.966Z,4.33
2019-02-03T13:55:39.269Z,4.35
2019-02-03T13:58:19.630Z,4.47
2019-02-03T14:00:51.625Z,4.43
2019-02-03T14:03:29.927Z,4.42
2019-02-03T14:06:04.639Z,4.45
2019-02-03T14:08:35.845Z,4.40
2019-02-03T14:11:07.276Z,4.40
2019-02-03T14:13:39.938Z,4.37
2019-02-03T14:16:11.405Z,4.41
2019-02-03T14:18:43.584Z,4.49
2019-02-03T14:21:16.591Z,4.40
2019-02-03T14:23:49.456Z,4.57
2019-02-03T14:26:20.457Z,4.63
2019-02-03T14:28:54.234Z,4.68
2019-02-03T14:31:26.996Z,4.72
2019-02-03T14:33:58.317Z,4.70
2019-02-03T14:36:31.112Z,4.64
2019-02-03T14:39:04.338Z,4.71
2019-02-03T14:41:36.384Z,4.69
2019-02-03T14:44:09.553Z,4.70
2019-02-03T14:46:41.904Z,4.78
2019-02-03T14:49:15.489Z,4.80
2019-02-03T14:51:47.070Z,4.80
2019-02-03T14:54:29.529Z,4.76
2019-02-03T14:57:01.280Z,4.75
2019-02-03T14:59:32.775Z,4.62
2019-02-03T15:02:06.584Z,4.65
2019-02-03T15:04:37.684Z,4.64
2019-02-03T15:07:09.882Z,4.63
2019-02-03T15:09:40.875Z,4.60
2019-02-03T15:12:12.558Z,4.59
2019-02-03T15:14:42.684Z,4.63
2019-02-03T15:17:16.297Z,4.62
2019-02-03T15:19:47.005Z,4.53
2019-02-03T15:22:18.141Z,4.55
2019-02-03T15:24:51.586Z,4.55
2019-02-03T15:27:25.429Z,4.38
2019-02-03T15:29:56.592Z,4.33
2019-02-03T15:32:27.622Z,4.36
2019-02-03T15:34:58.518Z,4.32
2019-02-03T15:37:31.758Z,4.33
2019-02-03T15:40:03.371Z,3.80
2019-02-03T15:42:34.039Z,4.42
2019-02-03T15:45:06.059Z,4.39
2019-02-03T15:47:38.821Z,4.37
2019-02-03T15:50:20.311Z,4.37
2019-02-03T15:52:52.454Z,4.33
2019-02-03T15:55:31.344Z,4.32
2019-02-03T15:58:03.507Z,4.31
2019-02-03T16:00:41.207Z,4.36
2019-02-03T16:03:13.586Z,4.28
2019-02-03T16:05:47.340Z,4.24
2019-02-03T16:08:21.647Z,4.22
2019-02-03T16:11:02.485Z,4.13
2019-02-03T16:13:37.303Z,4.11
2019-02-03T16:16:12.042Z,4.01
2019-02-03T16:18:49.271Z,4.03
2019-02-03T16:21:21.580Z,4.04
2019-02-03T16:23:52.882Z,4.06
2019-02-03T16:26:26.175Z,4.03
2019-02-03T16:28:57.074Z,4.07
2019-02-03T16:31:35.627Z,4.01
2019-02-03T16:34:11.142Z,4.01
2019-02-03T16:36:45.375Z,3.99
2019-02-03T16:39:20.204Z,3.95
2019-02-03T16:41:54.323Z,3.95
2019-02-03T16:44:26.456Z,3.95
2019-02-03T16:46:56.977Z,3.87
2019-02-03T16:49:28.462Z,3.76
2019-02-03T16:52:05.697Z,3.72
2019-02-03T16:54:37.822Z,3.68
2019-02-03T16:57:08.620Z,3.63
2019-02-03T16:59:40.738Z,3.59
2019-02-03T17:02:14.817Z,3.52
2019-02-03T17:04:46.937Z,3.47
2019-02-03T17:07:17.815Z,3.41
2019-02-03T17:09:48.322Z,3.48
2019-02-03T17:12:19.346Z,3.43
2019-02-03T17:14:50.549Z,3.50
2019-02-03T17:17:22.568Z,3.51
2019-02-03T17:19:53.021Z,3.58
2019-02-03T17:22:23.559Z,3.62
2019-02-03T17:24:54.626Z,3.68
2019-02-03T17:27:26.302Z,3.73
2019-02-03T17:29:56.696Z,3.71
2019-02-03T17:32:28.295Z,3.75
2019-02-03T17:34:59.418Z,3.83
2019-02-03T17:37:29.409Z,3.83
2019-02-03T17:40:00.052Z,3.86
2019-02-03T17:42:30.401Z,3.88
2019-02-03T17:45:00.427Z,3.90
2019-02-03T17:47:33.364Z,3.94
2019-02-03T17:50:07.664Z,3.99
2019-02-03T17:52:39.294Z,4.01
2019-02-03T17:55:15.193Z,4.04
2019-02-03T17:57:52.049Z,4.10
2019-02-03T18:00:52.895Z,4.10
2019-02-03T18:03:29.052Z,4.11
2019-02-03T18:06:09.829Z,4.10
2019-02-03T18:08:43.061Z,4.16
2019-02-03T18:11:17.758Z,4.18
2019-02-03T18:13:50.356Z,4.18
2019-02-03T18:16:21.467Z,4.19
2019-02-03T18:18:55.275Z,4.18
2019-02-03T18:21:28.771Z,4.19
2019-02-03T18:24:01.865Z,4.19
2019-02-03T18:26:34.243Z,4.19
2019-02-03T18:29:10.222Z,4.24
2019-02-03T18:31:40.678Z,4.24
2019-02-03T18:34:14.759Z,4.26
2019-02-03T18:36:44.960Z,4.30
2019-02-03T18:39:15.579Z,4.33
2019-02-03T18:41:46.071Z,4.30
2019-02-03T18:44:17.237Z,4.35
2019-02-03T18:46:48.081Z,4.36
2019-02-03T18:49:24.922Z,3.86
2019-02-03T18:52:13.824Z,4.35
2019-02-03T18:55:13.264Z,3.89
2019-02-03T18:57:48.690Z,4.46
2019-02-03T19:00:22.740Z,3.93
2019-02-03T19:02:58.272Z,4.43
2019-02-03T19:05:38.316Z,4.45
2019-02-03T19:08:28.953Z,4.51
2019-02-03T19:11:03.405Z,4.49
2019-02-03T19:13:43.393Z,4.46
2019-02-03T19:17:08.649Z,4.45
2019-02-03T19:19:44.479Z,4.44
2019-02-03T19:22:22.554Z,4.45
2019-02-03T19:24:57.194Z,4.41
2019-02-03T19:27:42.579Z,4.45
2019-02-03T19:30:19.987Z,4.41
2019-02-03T19:32:57.962Z,3.39
2019-02-03T19:35:33.141Z,4.47
2019-02-03T19:38:19.775Z,4.49
2019-02-03T19:40:56.857Z,4.53
2019-02-03T19:43:42.038Z,4.53
2019-02-03T19:46:15.190Z,4.55
2019-02-03T19:48:54.340Z,4.55
2019-02-03T19:51:26.366Z,4.55
2019-02-03T19:53:59.060Z,4.53
2019-02-03T19:56:29.263Z,3.95
2019-02-03T19:59:06.828Z,4.47
2019-02-03T20:01:57.918Z,4.47
2019-02-03T20:04:35.799Z,4.02
2019-02-03T20:07:09.435Z,3.67
2019-02-03T20:09:39.706Z,4.61
2019-02-03T20:12:10.994Z,4.64
2019-02-03T20:14:45.839Z,4.68
2019-02-03T20:17:19.275Z,4.70
2019-02-03T20:19:52.003Z,4.65
2019-02-03T20:22:23.548Z,4.63
2019-02-03T20:24:53.984Z,4.64
2019-02-03T20:27:24.695Z,4.67
2019-02-03T20:29:54.841Z,4.63
2019-02-03T20:32:26.100Z,4.60
2019-02-03T20:34:56.706Z,4.61
2019-02-03T20:37:27.012Z,4.63
2019-02-03T20:40:02.233Z,4.56
2019-02-03T20:42:30.127Z,4.55
2019-02-03T20:45:06.109Z,4.51
2019-02-03T20:47:39.392Z,4.47
2019-02-03T20:50:12.470Z,4.44
2019-02-03T20:52:46.931Z,4.43
2019-02-03T20:55:21.819Z,4.42
2019-02-03T20:57:52.891Z,4.40
2019-02-03T21:00:34.283Z,4.26
2019-02-03T21:03:10.821Z,4.19
2019-02-03T21:05:41.513Z,4.12
2019-02-03T21:08:16.920Z,4.07
2019-02-03T21:10:49.332Z,4.00
2019-02-03T21:13:23.626Z,3.96
2019-02-03T21:15:58.797Z,3.90
2019-02-03T21:18:29.562Z,3.87
2019-02-03T21:21:02.821Z,3.80
2019-02-03T21:23:33.113Z,3.76
2019-02-03T21:26:16.357Z,3.80
2019-02-03T21:28:43.004Z,3.81
2019-02-03T21:31:15.219Z,3.85
2019-02-03T21:33:47.978Z,3.91
2019-02-03T21:36:24.711Z,3.88
2019-02-03T21:38:57.402Z,3.94
2019-02-03T21:41:30.250Z,3.94
2019-02-03T21:44:01.660Z,4.01
2019-02-03T21:46:32.370Z,4.10
2019-02-03T21:49:03.900Z,4.15
2019-02-03T21:51:37.237Z,4.08
2019-02-03T21:54:07.984Z,4.07
2019-02-03T21:56:40.208Z,4.01
2019-02-03T21:59:11.358Z,3.85
2019-02-03T22:01:46.039Z,3.77
2019-02-03T22:04:20.093Z,3.62
2019-02-03T22:06:52.019Z,3.51
2019-02-03T22:09:23.591Z,3.44
2019-02-03T22:11:54.371Z,3.39
2019-02-03T22:14:24.658Z,3.26
2019-02-03T22:16:55.052Z,3.18
2019-02-03T22:19:26.470Z,3.14
2019-02-03T22:21:57.124Z,3.10
2019-02-03T22:24:27.659Z,3.11
2019-02-03T22:26:58.117Z,3.12
2019-02-03T22:29:28.512Z,3.15
2019-02-03T22:31:59.574Z,3.20
2019-02-03T22:34:30.218Z,3.28
2019-02-03T22:37:00.847Z,3.31
2019-02-03T22:39:32.567Z,3.33
2019-02-03T22:42:04.091Z,3.38
2019-02-03T22:44:35.051Z,3.47
2019-02-03T22:47:05.737Z,3.60
2019-02-03T22:49:36.808Z,3.72
2019-02-03T22:52:08.559Z,3.81
2019-02-03T22:54:38.918Z,3.88
2019-02-03T22:57:10.198Z,3.94
2019-02-03T22:59:41.578Z,3.97
2019-02-03T23:02:13.239Z,3.97
2019-02-03T23:04:44.249Z,3.98
2019-02-03T23:07:14.916Z,3.87
2019-02-03T23:09:46.424Z,3.80
2019-02-03T23:12:21.765Z,3.67
2019-02-03T23:14:52.522Z,3.59
2019-02-03T23:17:23.290Z,3.52
2019-02-03T23:19:56.900Z,3.43
2019-02-03T23:22:36.468Z,3.33
2019-02-03T23:25:07.688Z,3.24
2019-02-03T23:27:38.764Z,3.12
2019-02-03T23:30:13.886Z,3.05
2019-02-03T23:32:44.302Z,2.95
2019-02-03T23:35:19.244Z,2.88
2019-02-03T23:37:49.460Z,2.83
2019-02-03T23:40:20.854Z,2.79
2019-02-03T23:42:51.492Z,2.75
2019-02-03T23:45:21.940Z,2.70
2019-02-03T23:47:52.527Z,2.66
2019-02-03T23:50:23.231Z,2.64
2019-02-03T23:52:53.624Z,2.61
2019-02-03T23:55:24.060Z,2.56
2019-02-03T23:57:55.464Z,1.95
